Terminal Aerodrome Forecast
Issued by NWS

Home | Current Version | Previous Version | Text Only | Print | Product List | Glossary On
Versions: 1 2 3 4 5 6 7 8 9 10 11 12 13 14 15 16 17 18 19 20 21 22 23 24 25 26 27 28 29
000
FTUS43 KDLH 250800 AAA
TAFHYR
TAF AMD
KHYR 250801Z 2508/2606 21007KT P6SM SCT100
      TEMPO 2508/2510 3SM BR BKN029
     FM251000 17006KT 5SM BR BKN100
      TEMPO 2510/2512 2SM BR SCT005
     FM251500 21005KT P6SM SCT025
     FM251700 23010KT P6SM SCT040
     FM260000 33006KT P6SM BKN040=

USA.gov is the U.S. government's official web portal to all federal, state and local government web resources and services.